PWSweather.com
Personal Weather Stations
Station Observations
WIKENOS15
47th Ave & 30th St, Kenosha, WI 53144

47th Ave & 30th StKenosha, WI 53144

Lat: 42.612, Lon: -87.866

Elevation: 697

Station Type: Oregon Scientific 100N

Latest ConditionsUpdated 9:15:01 PM CDT Thursday, Jul 30, 2015
Currently Today's Max Today's Min Today's Average
Temperature 71.7°F22.1°C 87.2°F30.7°C 60.6°F15.9°C 74.6°F23.7°C
Dew Point 58.4°F14.7°C 65.3°F18.5°C 56.4°F13.6°C 60.0°F15.6°C
Winds Calm Calm 3.1 mph NNW5.0 kmh NNW - 0.9 mph 1.4 kmh
Wind Gusts -- 5.2 mph8.4 kmh - -
Humidity 63% 87% 40% 63%
Pressure 29.92 in1013.2 mb 29.98 in1015.2 mb 29.91 in1012.9 mb -
Hour Temp Dew Point Humidity Winds Wind Gusts Pressure Precip Precip Rate Daily Precip Total
09:15 PM 71.7°F22.1°C 58.4°F14.7°C 63% Calm Calm -- 29.92 in1013.2 mb - 0.00 in0.0 mm 0.00 in0.0 mm
08:15 PM 74.6°F23.7°C 59.8°F15.4°C 60% Calm Calm -- 29.91 in1012.9 mb - 0.00 in0.0 mm 0.00 in0.0 mm
08:00 PM 76.0°F24.4°C 60.6°F15.9°C 59% Calm Calm -- 29.91 in1012.9 mb - 0.00 in0.0 mm 0.00 in0.0 mm
07:45 PM 77.6°F25.3°C 61.2°F16.2°C 57% Calm Calm -- 29.91 in1012.9 mb - 0.00 in0.0 mm 0.00 in0.0 mm
07:30 PM 78.8°F26.0°C 61.8°F16.6°C 56% Calm Calm -- 29.91 in1012.9 mb - 0.00 in0.0 mm 0.00 in0.0 mm
07:15 PM 80.0°F26.7°C 60.8°F16.0°C 52% Calm Calm -- 29.91 in1012.9 mb - 0.00 in0.0 mm 0.00 in0.0 mm
07:00 PM 81.2°F27.3°C 59.1°F15.1°C 47% Calm Calm -- 29.91 in1012.9 mb - 0.00 in0.0 mm 0.00 in0.0 mm
06:45 PM 82.2°F27.9°C 58.7°F14.8°C 45% 1.1 mph NW1.8 kmh NW 2.3 mph3.7 kmh 29.91 in1012.9 mb - 0.00 in0.0 mm 0.00 in0.0 mm
06:30 PM 83.0°F28.3°C 58.2°F14.6°C 43% 1.2 mph WNW1.9 kmh WNW 1.5 mph2.4 kmh 29.91 in1012.9 mb - 0.00 in0.0 mm 0.00 in0.0 mm
06:15 PM 84.6°F29.2°C 58.3°F14.6°C 41% 1.6 mph WNW2.6 kmh WNW 3.0 mph4.8 kmh 29.92 in1013.2 mb - 0.00 in0.0 mm 0.00 in0.0 mm
06:00 PM 85.2°F29.6°C 60.2°F15.7°C 43% 1.6 mph WNW2.6 kmh WNW 3.0 mph4.8 kmh 29.92 in1013.2 mb - 0.00 in0.0 mm 0.00 in0.0 mm
05:45 PM 85.9°F29.9°C 59.5°F15.3°C 41% 1.8 mph NW2.9 kmh NW 2.3 mph3.7 kmh 29.92 in1013.2 mb - 0.00 in0.0 mm 0.00 in0.0 mm
05:30 PM 85.7°F29.8°C 59.3°F15.2°C 41% 2.0 mph NW3.2 kmh NW 3.7 mph6.0 kmh 29.92 in1013.2 mb - 0.00 in0.0 mm 0.00 in0.0 mm
05:15 PM 86.0°F30.0°C 60.9°F16.1°C 43% 1.3 mph NW2.1 kmh NW 2.3 mph3.7 kmh 29.93 in1013.5 mb - 0.00 in0.0 mm 0.00 in0.0 mm
05:00 PM 86.2°F30.1°C 59.8°F15.4°C 41% 1.9 mph NW3.1 kmh NW 2.3 mph3.7 kmh 29.93 in1013.5 mb - 0.00 in0.0 mm 0.00 in0.0 mm
04:45 PM 86.3°F30.2°C 59.8°F15.4°C 41% 1.3 mph NW2.1 kmh NW 3.0 mph4.8 kmh 29.93 in1013.5 mb - 0.00 in0.0 mm 0.00 in0.0 mm
04:30 PM 86.7°F30.4°C 60.2°F15.7°C 41% 2.2 mph NNW3.5 kmh NNW 3.0 mph4.8 kmh 29.93 in1013.5 mb - 0.00 in0.0 mm 0.00 in0.0 mm
04:15 PM 87.2°F30.7°C 60.6°F15.9°C 41% 2.2 mph NW3.5 kmh NW 3.7 mph6.0 kmh 29.94 in1013.9 mb - 0.00 in0.0 mm 0.00 in0.0 mm
04:00 PM 87.0°F30.6°C 61.1°F16.2°C 42% 1.8 mph NW2.9 kmh NW 2.3 mph3.7 kmh 29.94 in1013.9 mb - 0.00 in0.0 mm 0.00 in0.0 mm
03:45 PM 86.4°F30.2°C 59.2°F15.1°C 40% 2.2 mph NW3.5 kmh NW 3.0 mph4.8 kmh 29.94 in1013.9 mb - 0.00 in0.0 mm 0.00 in0.0 mm
03:30 PM 87.0°F30.6°C 60.4°F15.8°C 41% 1.7 mph NW2.7 kmh NW 3.0 mph4.8 kmh 29.95 in1014.2 mb - 0.00 in0.0 mm 0.00 in0.0 mm
03:15 PM 86.7°F30.4°C 60.2°F15.7°C 41% 3.1 mph NNW5.0 kmh NNW 3.7 mph6.0 kmh 29.94 in1013.9 mb - 0.00 in0.0 mm 0.00 in0.0 mm
03:00 PM 86.5°F30.3°C 62.0°F16.7°C 44% 2.7 mph NW4.3 kmh NW 3.0 mph4.8 kmh 29.95 in1014.2 mb - 0.00 in0.0 mm 0.00 in0.0 mm
02:45 PM 86.3°F30.2°C 62.5°F16.9°C 45% 2.3 mph W3.7 kmh W 3.0 mph4.8 kmh 29.95 in1014.2 mb - 0.00 in0.0 mm 0.00 in0.0 mm
02:30 PM 86.4°F30.2°C 64.4°F18.0°C 48% 1.9 mph NW3.1 kmh NW 3.0 mph4.8 kmh 29.95 in1014.2 mb - 0.00 in0.0 mm 0.00 in0.0 mm
02:15 PM 86.3°F30.2°C 60.5°F15.8°C 42% 2.0 mph N3.2 kmh N 3.7 mph6.0 kmh 29.96 in1014.6 mb - 0.00 in0.0 mm 0.00 in0.0 mm
02:00 PM 86.5°F30.3°C 64.5°F18.1°C 48% 1.9 mph NW3.1 kmh NW 5.2 mph8.4 kmh 29.96 in1014.6 mb - 0.00 in0.0 mm 0.00 in0.0 mm
01:45 PM 85.7°F29.8°C 63.8°F17.7°C 48% 1.7 mph W2.7 kmh W 3.0 mph4.8 kmh 29.96 in1014.6 mb - 0.00 in0.0 mm 0.00 in0.0 mm
01:30 PM 85.4°F29.7°C 61.6°F16.4°C 45% 2.4 mph N3.9 kmh N 3.7 mph6.0 kmh 29.96 in1014.6 mb - 0.00 in0.0 mm 0.00 in0.0 mm
01:15 PM 85.6°F29.8°C 62.5°F16.9°C 46% 1.3 mph N2.1 kmh N 3.0 mph4.8 kmh 29.97 in1014.9 mb - 0.00 in0.0 mm 0.00 in0.0 mm
01:00 PM 85.1°F29.5°C 61.4°F16.3°C 45% 1.6 mph NNW2.6 kmh NNW 3.0 mph4.8 kmh 29.97 in1014.9 mb - 0.00 in0.0 mm 0.00 in0.0 mm
12:45 PM 85.0°F29.4°C 62.5°F16.9°C 47% 2.8 mph NW4.5 kmh NW 3.7 mph6.0 kmh 29.97 in1014.9 mb - 0.00 in0.0 mm 0.00 in0.0 mm
12:30 PM 84.8°F29.3°C 63.5°F17.5°C 49% 2.2 mph N3.5 kmh N 3.0 mph4.8 kmh 29.98 in1015.2 mb - 0.00 in0.0 mm 0.00 in0.0 mm
12:15 PM 84.2°F29.0°C 64.1°F17.8°C 51% 1.2 mph NW1.9 kmh NW 2.3 mph3.7 kmh 29.98 in1015.2 mb - 0.00 in0.0 mm 0.00 in0.0 mm
12:00 PM 83.8°F28.8°C 64.3°F17.9°C 52% 1.5 mph NNW2.4 kmh NNW 2.3 mph3.7 kmh 29.98 in1015.2 mb - 0.00 in0.0 mm 0.00 in0.0 mm
11:45 AM 83.3°F28.5°C 63.3°F17.4°C 51% 2.2 mph WNW3.5 kmh WNW 3.7 mph6.0 kmh 29.98 in1015.2 mb - 0.00 in0.0 mm 0.00 in0.0 mm
11:30 AM 83.1°F28.4°C 63.1°F17.3°C 51% 1.6 mph W2.6 kmh W 3.0 mph4.8 kmh 29.98 in1015.2 mb - 0.00 in0.0 mm 0.00 in0.0 mm
11:15 AM 82.8°F28.2°C 62.8°F17.1°C 51% 2.0 mph NNW3.2 kmh NNW 3.7 mph6.0 kmh 29.98 in1015.2 mb - 0.00 in0.0 mm 0.00 in0.0 mm
11:00 AM 82.0°F27.8°C 62.7°F17.1°C 52% 1.3 mph NW2.1 kmh NW 3.0 mph4.8 kmh 29.98 in1015.2 mb - 0.00 in0.0 mm 0.00 in0.0 mm
10:45 AM 81.5°F27.5°C 62.2°F16.8°C 52% 1.6 mph NW2.6 kmh NW 1.5 mph2.4 kmh 29.98 in1015.2 mb - 0.00 in0.0 mm 0.00 in0.0 mm
10:30 AM 80.5°F26.9°C 64.4°F18.0°C 58% 0.9 mph W1.4 kmh W 1.5 mph2.4 kmh 29.97 in1014.9 mb - 0.00 in0.0 mm 0.00 in0.0 mm
10:15 AM 79.9°F26.6°C 63.3°F17.4°C 57% 1.0 mph N1.6 kmh N 2.3 mph3.7 kmh 29.97 in1014.9 mb - 0.00 in0.0 mm 0.00 in0.0 mm
10:00 AM 78.8°F26.0°C 64.2°F17.9°C 61% 0.8 mph N1.3 kmh N 1.5 mph2.4 kmh 29.97 in1014.9 mb - 0.00 in0.0 mm 0.00 in0.0 mm
09:45 AM 77.8°F25.4°C 64.7°F18.2°C 64% 1.3 mph NW2.1 kmh NW 2.3 mph3.7 kmh 29.97 in1014.9 mb - 0.00 in0.0 mm 0.00 in0.0 mm
09:30 AM 76.6°F24.8°C 65.3°F18.5°C 68% 0.1 mph WNW0.2 kmh WNW 0.8 mph1.3 kmh 29.97 in1014.9 mb - 0.00 in0.0 mm 0.00 in0.0 mm
09:15 AM 75.5°F24.2°C 63.8°F17.7°C 67% 1.0 mph NW1.6 kmh NW 1.5 mph2.4 kmh 29.97 in1014.9 mb - 0.00 in0.0 mm 0.00 in0.0 mm
09:00 AM 74.0°F23.3°C 63.6°F17.6°C 70% 0.8 mph NW1.3 kmh NW 2.3 mph3.7 kmh 29.98 in1015.2 mb - 0.00 in0.0 mm 0.00 in0.0 mm
08:45 AM 73.0°F22.8°C 62.2°F16.8°C 69% 1.5 mph WNW2.4 kmh WNW 1.5 mph2.4 kmh 29.97 in1014.9 mb - 0.00 in0.0 mm 0.00 in0.0 mm
08:30 AM 71.8°F22.1°C 62.3°F16.8°C 72% 0.9 mph NNW1.4 kmh NNW 2.3 mph3.7 kmh 29.97 in1014.9 mb - 0.00 in0.0 mm 0.00 in0.0 mm
08:15 AM 70.6°F21.4°C 62.0°F16.7°C 74% 0.8 mph W1.3 kmh W 1.5 mph2.4 kmh 29.97 in1014.9 mb - 0.00 in0.0 mm 0.00 in0.0 mm
08:00 AM 69.6°F20.9°C 61.3°F16.3°C 75% 0.8 mph NW1.3 kmh NW 2.3 mph3.7 kmh 29.96 in1014.6 mb - 0.00 in0.0 mm 0.00 in0.0 mm
07:45 AM 68.5°F20.3°C 61.3°F16.3°C 78% 0.7 mph N1.1 kmh N 0.8 mph1.3 kmh 29.96 in1014.6 mb - 0.00 in0.0 mm 0.00 in0.0 mm
07:30 AM 66.9°F19.4°C 60.5°F15.8°C 80% 0.1 mph W0.2 kmh W 1.5 mph2.4 kmh 29.96 in1014.6 mb - 0.00 in0.0 mm 0.00 in0.0 mm
07:15 AM 64.9°F18.3°C 59.6°F15.3°C 83% 0.3 mph WNW0.5 kmh WNW 0.8 mph1.3 kmh 29.96 in1014.6 mb - 0.00 in0.0 mm 0.00 in0.0 mm
07:00 AM 63.2°F17.3°C 58.6°F14.8°C 85% Calm Calm -- 29.96 in1014.6 mb - 0.00 in0.0 mm 0.00 in0.0 mm
06:45 AM 62.0°F16.7°C 57.7°F14.3°C 86% Calm Calm -- 29.95 in1014.2 mb - 0.00 in0.0 mm 0.00 in0.0 mm
06:30 AM 60.8°F16.0°C 56.9°F13.8°C 87% Calm Calm -- 29.95 in1014.2 mb - 0.00 in0.0 mm 0.00 in0.0 mm
06:15 AM 60.6°F15.9°C 56.7°F13.7°C 87% Calm Calm -- 29.95 in1014.2 mb - 0.00 in0.0 mm 0.00 in0.0 mm
06:00 AM 60.7°F15.9°C 56.8°F13.8°C 87% Calm Calm -- 29.95 in1014.2 mb - 0.00 in0.0 mm 0.00 in0.0 mm
05:45 AM 61.2°F16.2°C 56.7°F13.7°C 85% Calm Calm -- 29.94 in1013.9 mb - 0.00 in0.0 mm 0.00 in0.0 mm
05:30 AM 61.4°F16.3°C 56.8°F13.8°C 85% 0.5 mph NW0.8 kmh NW 1.5 mph2.4 kmh 29.94 in1013.9 mb - 0.00 in0.0 mm 0.00 in0.0 mm
05:15 AM 61.0°F16.1°C 56.7°F13.7°C 86% Calm Calm -- 29.94 in1013.9 mb - 0.00 in0.0 mm 0.00 in0.0 mm
05:00 AM 61.2°F16.2°C 56.7°F13.7°C 85% Calm Calm -- 29.94 in1013.9 mb - 0.00 in0.0 mm 0.00 in0.0 mm
04:45 AM 61.6°F16.4°C 57.0°F13.9°C 85% Calm Calm -- 29.93 in1013.5 mb - 0.00 in0.0 mm 0.00 in0.0 mm
04:30 AM 61.4°F16.3°C 56.6°F13.7°C 84% Calm Calm -- 29.93 in1013.5 mb - 0.00 in0.0 mm 0.00 in0.0 mm
04:15 AM 61.8°F16.6°C 56.9°F13.8°C 84% Calm Calm -- 29.93 in1013.5 mb - 0.00 in0.0 mm 0.00 in0.0 mm
04:00 AM 62.3°F16.8°C 57.1°F13.9°C 83% Calm Calm -- 29.93 in1013.5 mb - 0.00 in0.0 mm 0.00 in0.0 mm
03:45 AM 62.7°F17.1°C 56.8°F13.8°C 81% 0.2 mph NW0.3 kmh NW -- 29.93 in1013.5 mb - 0.00 in0.0 mm 0.00 in0.0 mm
03:30 AM 62.6°F17.0°C 56.6°F13.7°C 81% 0.5 mph NW0.8 kmh NW 1.5 mph2.4 kmh 29.93 in1013.5 mb - 0.00 in0.0 mm 0.00 in0.0 mm
03:15 AM 62.6°F17.0°C 56.7°F13.7°C 81% Calm Calm -- 29.93 in1013.5 mb - 0.00 in0.0 mm 0.00 in0.0 mm
03:00 AM 62.6°F17.0°C 56.7°F13.7°C 81% Calm Calm -- 29.92 in1013.2 mb - 0.00 in0.0 mm 0.00 in0.0 mm
02:45 AM 62.7°F17.1°C 56.4°F13.6°C 80% Calm Calm -- 29.92 in1013.2 mb - 0.00 in0.0 mm 0.00 in0.0 mm
02:30 AM 62.8°F17.1°C 56.5°F13.6°C 80% Calm Calm -- 29.92 in1013.2 mb - 0.00 in0.0 mm 0.00 in0.0 mm
02:15 AM 62.9°F17.2°C 56.6°F13.7°C 80% Calm Calm -- 29.92 in1013.2 mb - 0.00 in0.0 mm 0.00 in0.0 mm
02:00 AM 63.1°F17.3°C 56.5°F13.6°C 79% Calm Calm -- 29.92 in1013.2 mb - 0.00 in0.0 mm 0.00 in0.0 mm
01:45 AM 63.5°F17.5°C 56.9°F13.8°C 79% Calm Calm -- 29.93 in1013.5 mb - 0.00 in0.0 mm 0.00 in0.0 mm
01:30 AM 63.9°F17.7°C 56.9°F13.8°C 78% Calm Calm -- 29.93 in1013.5 mb - 0.00 in0.0 mm 0.00 in0.0 mm
01:15 AM 64.0°F17.8°C 56.7°F13.7°C 77% Calm Calm -- 29.93 in1013.5 mb - 0.00 in0.0 mm 0.00 in0.0 mm
01:00 AM 63.9°F17.7°C 56.9°F13.8°C 78% Calm Calm -- 29.93 in1013.5 mb - 0.00 in0.0 mm 0.00 in0.0 mm
12:45 AM 64.1°F17.8°C 57.1°F13.9°C 78% Calm Calm -- 29.93 in1013.5 mb - 0.00 in0.0 mm 0.00 in0.0 mm
12:30 AM 64.5°F18.1°C 57.1°F13.9°C 77% Calm Calm -- 29.93 in1013.5 mb - 0.00 in0.0 mm 0.00 in0.0 mm
12:15 AM 64.9°F18.3°C 57.2°F14.0°C 76% Calm Calm -- 29.93 in1013.5 mb - 0.00 in0.0 mm 0.00 in0.0 mm
12:00 AM 65.5°F18.6°C 57.3°F14.1°C 75% 0.1 mph NW0.2 kmh NW -- 29.93 in1013.5 mb - 0.00 in0.0 mm 0.00 in0.0 mm